Галицкий

Карта отелей и гостиниц, располагающихся рядом с аэропортом Галицкий :

Галицкий
Юрюзань
Челябинская область 54° 50' 14.1612" N, 58° 22' 4.44" E
Галицкий
Юрюзань
Челябинская область 54° 50' 14.1612" N, 58° 22' 4.44" E
Код аэродрома ИКАО: 
ZF4G
Код аэродрома RU: 
ЗФ4Г
Координаты: 
N54.83727° E058.36790°
Превышение над уровнем моря : 
416
Основная полоса: 
05/23
Курс магнитный: 
047/227
Длина основной ВПП: 
567
Ширина основной ВПП: 
20
Покрытие основной ВПП: 
Нетвёрдое (грунт)
Тип: 
Аэродром
Освещение ВПП: 
Нет
Класс аэродрома: 
Статус: 
Действующий
Принадлежность: 
АОН
Сайт: 
E-mail аэродрома: 
vadim-seregin@yandex.ru
Страна: 
Россия
Регион: 
Челябинская область
Город: 
Юрюзань
Дополнительная информация: 
Оператор: нет данных.

Найти трансфер

С помощью этой формы Вы можете найти трансфер из аэропорта Галицкий в город, аэропорт или вокзал:

Карта места

Javascript is required to view this map.

Погода в аэропортах:

Авиационная погода в Череповце

Регион: 
Погода METAR: 
ULWC 141730Z 10001MPS 9999 -SHRA SCT020CB 16/15 Q1011 R03/010060 NOSIG RMK QFE748/0998
Время наблюдения: 
2020-07-14T17:30:00Z
Температура C: 
16.0
Точка росы: 
15.0
Направление ветра: 
100
Скорость ветра: 
2
Метеорологическая видимость: 
6.21
Явления погоды: 
-SHRA
Условия полета: 
VFR
Аэропорт подробнее: 

Авиационная погода в Раменское

Регион: 
Погода METAR: 
UUBW 141730Z 02006MPS 9999 -TSRA FEW007 BKN024CB 18/17 Q0999 R30/210050 TEMPO 02010G18MPS 2100 -TSRA BKN012CB
Время наблюдения: 
2020-07-14T17:30:00Z
Температура C: 
18.0
Точка росы: 
17.0
Направление ветра: 
20
Скорость ветра: 
12
Метеорологическая видимость: 
6.21
Явления погоды: 
-TSRA
Условия полета: 
MVFR
Аэропорт подробнее: 

Авиационная погода в Угольном

Регион: 
Погода METAR: 
UHMA 141800Z 00000MPS 1900 -DZ BR BKN004 BKN011 10/09 Q1003 R01/////// NOSIG RMK TDZ R01/00000G01MPS END R01/05001MPS MT OBSC QFE748/0998
Время наблюдения: 
2020-07-14T18:00:00Z
Температура C: 
10.0
Точка росы: 
9.0
Направление ветра: 
0
Скорость ветра: 
0
Метеорологическая видимость: 
1.18
Явления погоды: 
-DZ BR
Условия полета: 
LIFR
Аэропорт подробнее: 

Авиационная погода в Москва - Шереметьево

Регион: 
Погода METAR: 
UUEE 141730Z 03008G13MPS 7000 -SHRA BKN020CB 16/14 Q1003 RETSRA R06R/290251 TEMPO 02011G19MPS 1000 TSRA
Время наблюдения: 
2020-07-14T17:30:00Z
Температура C: 
16.0
Точка росы: 
14.0
Направление ветра: 
30
Скорость ветра: 
16
Метеорологическая видимость: 
4.35
Явления погоды: 
-SHRA
Условия полета: 
MVFR
Аэропорт подробнее: